Aviation Digital Data Service (ADDS)

Output produced by METARs form (1352 UTC 13 December 2019)
found at http://www.aviationweather.gov/metar/data/
 
METAR text: RJFK 131200Z 07005KT 9999 FEW040 BKN060 10/06 Q1024 RMK 1CU040 7SC060 A3026
Conditions at: RJFK (KAGOSHIMA AIRPOR, JP) observed 1200 UTC 13 December 2019
Temperature: 10.0°C (50°F)
Dewpoint: 6.0°C (43°F) [RH = 76%]
Pressure (altimeter): 30.24 inches Hg (1024.0 mb)
Winds: from the ENE (70 degrees) at 6 MPH (5 knots; 2.6 m/s)
Visibility: 6 or more miles (10+ km)
Ceiling: 6000 feet AGL
Clouds: few clouds at 4000 feet AGL
broken clouds at 6000 feet AGL
Weather: no significant weather observed at this time

METAR text: RJFK 131100Z 10004KT 9999 FEW040 SCT/// 10/06 Q1024 RMK 2CU040 A3026
Conditions at: RJFK (KAGOSHIMA AIRPOR, JP) observed 1100 UTC 13 December 2019
Temperature: 10.0°C (50°F)
Dewpoint: 6.0°C (43°F) [RH = 76%]
Pressure (altimeter): 30.24 inches Hg (1024.0 mb)
Winds: from the E (100 degrees) at 5 MPH (4 knots; 2.1 m/s)
Visibility: 6 or more miles (10+ km)
Ceiling: at least 12,000 feet AGL
Clouds: few clouds at 4000 feet AGL
Weather: no significant weather observed at this time

METAR text: RJFK 131000Z 08004KT 9999 FEW040 11/07 Q1024 RMK 2CU040 A3025
Conditions at: RJFK (KAGOSHIMA AIRPOR, JP) observed 1000 UTC 13 December 2019
Temperature: 11.0°C (52°F)
Dewpoint: 7.0°C (45°F) [RH = 76%]
Pressure (altimeter): 30.24 inches Hg (1024.0 mb)
Winds: from the E (80 degrees) at 5 MPH (4 knots; 2.1 m/s)
Visibility: 6 or more miles (10+ km)
Ceiling: at least 12,000 feet AGL
Clouds: few clouds at 4000 feet AGL
Weather: no significant weather observed at this time

METAR text: RJFK 130900Z 06003KT 040V140 9999 SCT040 10/08 Q1024 RMK 3CU040 A3025
Conditions at: RJFK (KAGOSHIMA AIRPOR, JP) observed 0900 UTC 13 December 2019
Temperature: 10.0°C (50°F)
Dewpoint: 8.0°C (46°F) [RH = 87%]
Pressure (altimeter): 30.24 inches Hg (1024.0 mb)
Winds: from the ENE (60 degrees) at 3 MPH (3 knots; 1.5 m/s)
Visibility: 6 or more miles (10+ km)
Ceiling: at least 12,000 feet AGL
Clouds: scattered clouds at 4000 feet AGL
Weather: no significant weather observed at this time

METAR text: RJFK 130800Z 11002KT 9999 FEW040 14/08 Q1024 RMK 2CU040 A3024 VOLCANIC ASH CLOUD SE-S
Conditions at: RJFK (KAGOSHIMA AIRPOR, JP) observed 0800 UTC 13 December 2019
Temperature: 14.0°C (57°F)
Dewpoint: 8.0°C (46°F) [RH = 67%]
Pressure (altimeter): 30.24 inches Hg (1024.0 mb)
Winds: from the ESE (110 degrees) at 2 MPH (2 knots; 1.0 m/s)
Visibility: 6 or more miles (10+ km)
Ceiling: at least 12,000 feet AGL
Clouds: few clouds at 4000 feet AGL
Weather: no significant weather observed at this time

METAR text: RJFK 130700Z 24003KT 160V280 9999 FEW040 15/07 Q1024 RMK 2CU040 A3025 VOLCANIC ASH CLOUD SE-S
Conditions at: RJFK (KAGOSHIMA AIRPOR, JP) observed 0700 UTC 13 December 2019
Temperature: 15.0°C (59°F)
Dewpoint: 7.0°C (45°F) [RH = 59%]
Pressure (altimeter): 30.24 inches Hg (1024.0 mb)
Winds: from the WSW (240 degrees) at 3 MPH (3 knots; 1.5 m/s)
Visibility: 6 or more miles (10+ km)
Ceiling: at least 12,000 feet AGL
Clouds: few clouds at 4000 feet AGL
Weather: no significant weather observed at this time

METAR text: RJFK 130600Z VRB02KT 9999 FEW030 SCT040 15/07 Q1024 RMK 1CU030 3CU040 A3025 VOLCANIC ASH CLOUD SE-S
Conditions at: RJFK (KAGOSHIMA AIRPOR, JP) observed 0600 UTC 13 December 2019
Temperature: 15.0°C (59°F)
Dewpoint: 7.0°C (45°F) [RH = 59%]
Pressure (altimeter): 30.24 inches Hg (1024.0 mb)
Winds: variable direction winds at 2 MPH (2 knots; 1.0 m/s)
Visibility: 6 or more miles (10+ km)
Ceiling: at least 12,000 feet AGL
Clouds: few clouds at 3000 feet AGL
scattered clouds at 4000 feet AGL
Weather: no significant weather observed at this time

METAR text: RJFK 130500Z 17003KT 070V220 9999 VCVA SCT030 BKN/// 15/06 Q1024 RMK 3CU030 A3026 ASH FALL VOLCANIC ASH CLOUD SE-S
Conditions at: RJFK (KAGOSHIMA AIRPOR, JP) observed 0500 UTC 13 December 2019
Temperature: 15.0°C (59°F)
Dewpoint: 6.0°C (43°F) [RH = 55%]
Pressure (altimeter): 30.24 inches Hg (1024.0 mb)
Winds: from the S (170 degrees) at 3 MPH (3 knots; 1.5 m/s)
Visibility: 6 or more miles (10+ km)
Ceiling: at least 12,000 feet AGL
Clouds: scattered clouds at 3000 feet AGL
Weather: VCVA  (unknown weather)

METAR text: RJFK 130400Z VRB02KT 9999 VCVA FEW030 SCT/// 14/06 Q1024
Conditions at: RJFK (KAGOSHIMA AIRPOR, JP) observed 0400 UTC 13 December 2019
Temperature: 14.0°C (57°F)
Dewpoint: 6.0°C (43°F) [RH = 58%]
Pressure (altimeter): 30.24 inches Hg (1024.0 mb)
Winds: variable direction winds at 2 MPH (2 knots; 1.0 m/s)
Visibility: 6 or more miles (10+ km)
Ceiling: at least 12,000 feet AGL
Clouds: few clouds at 3000 feet AGL
Weather: VCVA  (unknown weather)

METAR text: RJFK 130300Z 09003KT 010V130 9999 VCVA FEW020 13/05 Q1025 RMK 1CU020 A3029 ASH FALL VOLCANIC ASH CLOUD E-S
Conditions at: RJFK (KAGOSHIMA AIRPOR, JP) observed 0300 UTC 13 December 2019
Temperature: 13.0°C (55°F)
Dewpoint: 5.0°C (41°F) [RH = 58%]
Pressure (altimeter): 30.27 inches Hg (1025.0 mb)
Winds: from the E (90 degrees) at 3 MPH (3 knots; 1.5 m/s)
Visibility: 6 or more miles (10+ km)
Ceiling: at least 12,000 feet AGL
Clouds: few clouds at 2000 feet AGL
Weather: VCVA  (unknown weather)

METAR text: RJFK 130200Z 10003KT 050V160 9999 VCVA NSC 12/05 Q1026 RMK A3032 ASH FALL VOLCANIC ASH CLOUD SE-S
Conditions at: RJFK (KAGOSHIMA AIRPOR, JP) observed 0200 UTC 13 December 2019
Temperature: 12.0°C (54°F)
Dewpoint: 5.0°C (41°F) [RH = 62%]
Pressure (altimeter): 30.30 inches Hg (1026.0 mb)
Winds: from the E (100 degrees) at 3 MPH (3 knots; 1.5 m/s)
Visibility: 6 or more miles (10+ km)
Ceiling: at least 12,000 feet AGL
Clouds: sky clear below 12,000 feet AGL
Weather: VCVA  (unknown weather)

METAR text: RJFK 130132Z 07003KT 030V120 9999 VCVA NSC 10/04 Q1026 RMK A3032 ASH FALL VOLCANIC ASH CLOUD SE-S
Conditions at: RJFK (KAGOSHIMA AIRPOR, JP) observed 0132 UTC 13 December 2019
Temperature: 10.0°C (50°F)
Dewpoint: 4.0°C (39°F) [RH = 66%]
Pressure (altimeter): 30.30 inches Hg (1026.0 mb)
Winds: from the ENE (70 degrees) at 3 MPH (3 knots; 1.5 m/s)
Visibility: 6 or more miles (10+ km)
Ceiling: at least 12,000 feet AGL
Clouds: sky clear below 12,000 feet AGL
Weather: VCVA  (unknown weather)

METAR text: RJFK 130100Z 04004KT CAVOK 09/04 Q1026 RMK A3032 VOLCANIC ASH CLOUD SE-S
Conditions at: RJFK (KAGOSHIMA AIRPOR, JP) observed 0100 UTC 13 December 2019
Temperature: 9.0°C (48°F)
Dewpoint: 4.0°C (39°F) [RH = 71%]
Pressure (altimeter): 30.30 inches Hg (1026.0 mb)
Winds: from the NE (40 degrees) at 5 MPH (4 knots; 2.1 m/s)
Visibility: 6 or more miles (10+ km)
Ceiling: ceiling and visibility are OK
Clouds: unknown
Weather: no significant weather observed at this time

METAR text: RJFK 130000Z 01004KT 9999 FEW010 06/02 Q1026 RMK 1CU010 A3031 VOLCANIC ASH CLOUD SE-S
Conditions at: RJFK (KAGOSHIMA AIRPOR, JP) observed 0000 UTC 13 December 2019
Temperature: 6.0°C (43°F)
Dewpoint: 2.0°C (36°F) [RH = 75%]
Pressure (altimeter): 30.30 inches Hg (1026.0 mb)
Winds: from the N (10 degrees) at 5 MPH (4 knots; 2.1 m/s)
Visibility: 6 or more miles (10+ km)
Ceiling: at least 12,000 feet AGL
Clouds: few clouds at 1000 feet AGL
Weather: no significant weather observed at this time

METAR text: RJFK 122300Z 01005KT 9999 FEW010 03/M00 Q1026 RMK 1CU010 A3031 VOLCANIC ASH CLOUD SE-S
Conditions at: RJFK (KAGOSHIMA AIRPOR, JP) observed 2300 UTC 12 December 2019
Temperature: 3.0°C (37°F)
Dewpoint: 0.0°C (32°F) [RH = 81%]
Pressure (altimeter): 30.30 inches Hg (1026.0 mb)
Winds: from the N (10 degrees) at 6 MPH (5 knots; 2.6 m/s)
Visibility: 6 or more miles (10+ km)
Ceiling: at least 12,000 feet AGL
Clouds: few clouds at 1000 feet AGL
Weather: no significant weather observed at this time

METAR text: RJFK 122200Z 01006KT 9999 FEW010 03/M01 Q1025 RMK 1CU010 A3029 VOLCANIC ASH CLOUD SE-S
Conditions at: RJFK (KAGOSHIMA AIRPOR, JP) observed 2200 UTC 12 December 2019
Temperature: 3.0°C (37°F)
Dewpoint: -1.0°C (30°F) [RH = 75%]
Pressure (altimeter): 30.27 inches Hg (1025.0 mb)
Winds: from the N (10 degrees) at 7 MPH (6 knots; 3.1 m/s)
Visibility: 6 or more miles (10+ km)
Ceiling: at least 12,000 feet AGL
Clouds: few clouds at 1000 feet AGL
Weather: no significant weather observed at this time

METAR text: RJFK 122100Z 02005KT CAVOK 02/M01 Q1025 RMK A3028
Conditions at: RJFK (KAGOSHIMA AIRPOR, JP) observed 2100 UTC 12 December 2019
Temperature: 2.0°C (36°F)
Dewpoint: -1.0°C (30°F) [RH = 80%]
Pressure (altimeter): 30.27 inches Hg (1025.0 mb)
Winds: from the NNE (20 degrees) at 6 MPH (5 knots; 2.6 m/s)
Visibility: 6 or more miles (10+ km)
Ceiling: ceiling and visibility are OK
Clouds: unknown
Weather: no significant weather observed at this time

METAR text: RJFK 121200Z 36005KT CAVOK 04/00 Q1024 RMK A3026
Conditions at: RJFK (KAGOSHIMA AIRPOR, JP) observed 1200 UTC 12 December 2019
Temperature: 4.0°C (39°F)
Dewpoint: 0.0°C (32°F) [RH = 75%]
Pressure (altimeter): 30.24 inches Hg (1024.0 mb)
Winds: from the N (360 degrees) at 6 MPH (5 knots; 2.6 m/s)
Visibility: 6 or more miles (10+ km)
Ceiling: ceiling and visibility are OK
Clouds: unknown
Weather: no significant weather observed at this time

METAR text: RJFK 121100Z 34006KT CAVOK 05/00 Q1023 RMK A3023
Conditions at: RJFK (KAGOSHIMA AIRPOR, JP) observed 1100 UTC 12 December 2019
Temperature: 5.0°C (41°F)
Dewpoint: 0.0°C (32°F) [RH = 70%]
Pressure (altimeter): 30.21 inches Hg (1023.0 mb)
Winds: from the NNW (340 degrees) at 7 MPH (6 knots; 3.1 m/s)
Visibility: 6 or more miles (10+ km)
Ceiling: ceiling and visibility are OK
Clouds: unknown
Weather: no significant weather observed at this time

METAR text: RJFK 121000Z 32008KT CAVOK 06/00 Q1023 RMK A3022
Conditions at: RJFK (KAGOSHIMA AIRPOR, JP) observed 1000 UTC 12 December 2019
Temperature: 6.0°C (43°F)
Dewpoint: 0.0°C (32°F) [RH = 65%]
Pressure (altimeter): 30.21 inches Hg (1023.0 mb)
Winds: from the NW (320 degrees) at 9 MPH (8 knots; 4.1 m/s)
Visibility: 6 or more miles (10+ km)
Ceiling: ceiling and visibility are OK
Clouds: unknown
Weather: no significant weather observed at this time

METAR text: RJFK 120900Z 30006KT 260V340 9999 FEW030 07/00 Q1023 RMK 1CU030 A3023 VOLCANIC ASH CLOUD S
Conditions at: RJFK (KAGOSHIMA AIRPOR, JP) observed 0900 UTC 12 December 2019
Temperature: 7.0°C (45°F)
Dewpoint: 0.0°C (32°F) [RH = 61%]
Pressure (altimeter): 30.21 inches Hg (1023.0 mb)
Winds: from the WNW (300 degrees) at 7 MPH (6 knots; 3.1 m/s)
Visibility: 6 or more miles (10+ km)
Ceiling: at least 12,000 feet AGL
Clouds: few clouds at 3000 feet AGL
Weather: no significant weather observed at this time

METAR text: RJFK 120800Z 32009KT 9999 FEW030 09/01 Q1022 RMK 1CU030 A3020 VOLCANIC ASH CLOUD S
Conditions at: RJFK (KAGOSHIMA AIRPOR, JP) observed 0800 UTC 12 December 2019
Temperature: 9.0°C (48°F)
Dewpoint: 1.0°C (34°F) [RH = 57%]
Pressure (altimeter): 30.18 inches Hg (1022.0 mb)
Winds: from the NW (320 degrees) at 10 MPH (9 knots; 4.6 m/s)
Visibility: 6 or more miles (10+ km)
Ceiling: at least 12,000 feet AGL
Clouds: few clouds at 3000 feet AGL
Weather: no significant weather observed at this time

METAR text: RJFK 120700Z 33011KT 9999 FEW030 11/01 Q1022 RMK 1CU030 A3018 VOLCANIC ASH CLOUD SE-S
Conditions at: RJFK (KAGOSHIMA AIRPOR, JP) observed 0700 UTC 12 December 2019
Temperature: 11.0°C (52°F)
Dewpoint: 1.0°C (34°F) [RH = 50%]
Pressure (altimeter): 30.18 inches Hg (1022.0 mb)
Winds: from the NNW (330 degrees) at 13 MPH (11 knots; 5.7 m/s)
Visibility: 6 or more miles (10+ km)
Ceiling: at least 12,000 feet AGL
Clouds: few clouds at 3000 feet AGL
Weather: no significant weather observed at this time

METAR text: RJFK 120600Z 33013KT 9999 FEW030 12/02 Q1021 RMK 1CU030 A3017 VOLCANIC ASH CLOUD SE-S
Conditions at: RJFK (KAGOSHIMA AIRPOR, JP) observed 0600 UTC 12 December 2019
Temperature: 12.0°C (54°F)
Dewpoint: 2.0°C (36°F) [RH = 50%]
Pressure (altimeter): 30.15 inches Hg (1021.0 mb)
Winds: from the NNW (330 degrees) at 15 MPH (13 knots; 6.7 m/s)
Visibility: 6 or more miles (10+ km)
Ceiling: at least 12,000 feet AGL
Clouds: few clouds at 3000 feet AGL
Weather: no significant weather observed at this time

METAR text: RJFK 120500Z 31013KT 9999 FEW030 12/02 Q1021 RMK 1CU030 A3017 VOLCANIC ASH CLOUD SE-S
Conditions at: RJFK (KAGOSHIMA AIRPOR, JP) observed 0500 UTC 12 December 2019
Temperature: 12.0°C (54°F)
Dewpoint: 2.0°C (36°F) [RH = 50%]
Pressure (altimeter): 30.15 inches Hg (1021.0 mb)
Winds: from the NW (310 degrees) at 15 MPH (13 knots; 6.7 m/s)
Visibility: 6 or more miles (10+ km)
Ceiling: at least 12,000 feet AGL
Clouds: few clouds at 3000 feet AGL
Weather: no significant weather observed at this time

METAR text: RJFK 120400Z 32013KT 9999 FEW030 12/02 Q1022 RMK 1CU030 A3018 VOLCANIC ASH CLOUD SE-S
Conditions at: RJFK (KAGOSHIMA AIRPOR, JP) observed 0400 UTC 12 December 2019
Temperature: 12.0°C (54°F)
Dewpoint: 2.0°C (36°F) [RH = 50%]
Pressure (altimeter): 30.18 inches Hg (1022.0 mb)
Winds: from the NW (320 degrees) at 15 MPH (13 knots; 6.7 m/s)
Visibility: 6 or more miles (10+ km)
Ceiling: at least 12,000 feet AGL
Clouds: few clouds at 3000 feet AGL
Weather: no significant weather observed at this time

METAR text: RJFK 120300Z 34013KT 290V010 9999 FEW030 11/02 Q1022 RMK 1CU030 A3019 VOLCANIC ASH CLOUD SE-S
Conditions at: RJFK (KAGOSHIMA AIRPOR, JP) observed 0300 UTC 12 December 2019
Temperature: 11.0°C (52°F)
Dewpoint: 2.0°C (36°F) [RH = 54%]
Pressure (altimeter): 30.18 inches Hg (1022.0 mb)
Winds: from the NNW (340 degrees) at 15 MPH (13 knots; 6.7 m/s)
Visibility: 6 or more miles (10+ km)
Ceiling: at least 12,000 feet AGL
Clouds: few clouds at 3000 feet AGL
Weather: no significant weather observed at this time

METAR text: RJFK 120200Z 33013KT 300V360 9999 FEW030 11/02 Q1023 RMK 1CU030 A3021 VOLCANIC ASH CLOUD S
Conditions at: RJFK (KAGOSHIMA AIRPOR, JP) observed 0200 UTC 12 December 2019
Temperature: 11.0°C (52°F)
Dewpoint: 2.0°C (36°F) [RH = 54%]
Pressure (altimeter): 30.21 inches Hg (1023.0 mb)
Winds: from the NNW (330 degrees) at 15 MPH (13 knots; 6.7 m/s)
Visibility: 6 or more miles (10+ km)
Ceiling: at least 12,000 feet AGL
Clouds: few clouds at 3000 feet AGL
Weather: no significant weather observed at this time

Forecast for: RJFK (KAGOSHIMA AIRPOR, JP)
Text: TAF RJFK 131106Z 1312/1418 07005KT 9999 FEW020 BKN045
Forecast period: 1200 to 1300 UTC 13 December 2019
Forecast type: FROM: standard forecast or significant change
Winds: from the ENE (70 degrees) at 6 MPH (5 knots; 2.6 m/s)
Visibility: 6 or more miles 10+ km)
Ceiling: 4500 feet AGL
Clouds: few clouds at 2000 feet AGL
broken clouds at 4500 feet AGL
Weather: no significant weather forecast for this period
Text: BECMG 1313/1315 02005KT
Forecast period: 1300 UTC 13 December 2019 to 1800 UTC 14 December 2019
Forecast type: BECOMING: Conditions expected to become as follows by 1500 UTC 13 December 2019
Winds: from the NNE (20 degrees) at 6 MPH (5 knots; 2.6 m/s)
Visibility: 6 or more miles 10+ km)
Ceiling: 4500 feet AGL
Clouds: few clouds at 2000 feet AGL
broken clouds at 4500 feet AGL
Weather: no significant weather forecast for this period